sensor_id;sensor_type;location;lat;lon;timestamp;pressure;altitude;pressure_sealevel;temperature;humidity
59411;BME280;45215;32.610;-115.482;2022-08-19T00:00:49;100369.78;;;22.23;37.21
59411;BME280;45215;32.610;-115.482;2022-08-19T00:03:15;100367.78;;;22.04;37.54
59411;BME280;45215;32.610;-115.482;2022-08-19T00:05:42;100370.09;;;22.42;43.19
59411;BME280;45215;32.610;-115.482;2022-08-19T00:08:08;100361.84;;;22.57;40.57
59411;BME280;45215;32.610;-115.482;2022-08-19T00:10:34;100366.91;;;22.32;37.92
59411;BME280;45215;32.610;-115.482;2022-08-19T00:13:00;100361.22;;;22.13;36.42
59411;BME280;45215;32.610;-115.482;2022-08-19T00:15:26;100358.34;;;22.21;39.55
59411;BME280;45215;32.610;-115.482;2022-08-19T00:17:54;100368.50;;;22.61;42.31
59411;BME280;45215;32.610;-115.482;2022-08-19T00:20:21;100361.19;;;22.48;38.92
59411;BME280;45215;32.610;-115.482;2022-08-19T00:22:48;100360.66;;;22.24;36.99
59411;BME280;45215;32.610;-115.482;2022-08-19T00:25:15;100356.22;;;22.10;36.69
59411;BME280;45215;32.610;-115.482;2022-08-19T00:27:41;100371.34;;;22.46;44.10
59411;BME280;45215;32.610;-115.482;2022-08-19T00:30:08;100366.41;;;22.56;39.94
59411;BME280;45215;32.610;-115.482;2022-08-19T00:32:36;100366.34;;;22.36;37.46
59411;BME280;45215;32.610;-115.482;2022-08-19T00:35:04;100361.22;;;22.13;35.90
59411;BME280;45215;32.610;-115.482;2022-08-19T00:37:31;100365.03;;;22.25;41.19
59411;BME280;45215;32.610;-115.482;2022-08-19T00:39:58;100364.97;;;22.60;42.17
59411;BME280;45215;32.610;-115.482;2022-08-19T00:42:24;100364.91;;;22.47;37.88
59411;BME280;45215;32.610;-115.482;2022-08-19T00:44:53;100361.69;;;22.23;36.07
59411;BME280;45215;32.610;-115.482;2022-08-19T00:47:20;100356.41;;;22.09;36.92
59411;BME280;45215;32.610;-115.482;2022-08-19T00:49:53;100367.22;;;22.50;43.63
59411;BME280;45215;32.610;-115.482;2022-08-19T00:52:29;100365.13;;;22.52;38.96
59411;BME280;45215;32.610;-115.482;2022-08-19T00:54:58;100370.66;;;22.31;36.53
59411;BME280;45215;32.610;-115.482;2022-08-19T00:57:35;100362.00;;;22.07;35.33
59411;BME280;45215;32.610;-115.482;2022-08-19T01:00:10;100373.81;;;22.41;40.68
59411;BME280;45215;32.610;-115.482;2022-08-19T01:02:38;100363.72;;;22.56;39.73
59411;BME280;45215;32.610;-115.482;2022-08-19T01:05:08;100363.81;;;22.35;36.69
59411;BME280;45215;32.610;-115.482;2022-08-19T01:07:37;100356.41;;;22.09;34.96
59411;BME280;45215;32.610;-115.482;2022-08-19T01:10:08;100355.84;;;22.20;40.36
59411;BME280;45215;32.610;-115.482;2022-08-19T01:12:34;100359.72;;;22.52;41.00
59411;BME280;45215;32.610;-115.482;2022-08-19T01:15:01;100357.19;;;22.37;37.57
59411;BME280;45215;32.610;-115.482;2022-08-19T01:17:28;100320.78;;;21.92;35.42
59411;BME280;45215;32.610;-115.482;2022-08-19T01:19:54;100348.28;;;22.02;37.04
59411;BME280;45215;32.610;-115.482;2022-08-19T01:24:50;100346.78;;;22.41;38.23
59411;BME280;45215;32.610;-115.482;2022-08-19T01:27:18;100330.22;;;22.09;35.90
59411;BME280;45215;32.610;-115.482;2022-08-19T01:29:44;100342.63;;;21.97;34.65
59411;BME280;45215;32.610;-115.482;2022-08-19T01:32:13;100340.06;;;22.23;42.08
59411;BME280;45215;32.610;-115.482;2022-08-19T01:34:40;100331.84;;;22.45;39.46
59411;BME280;45215;32.610;-115.482;2022-08-19T01:37:09;100333.84;;;22.23;36.22
59411;BME280;45215;32.610;-115.482;2022-08-19T01:39:40;100330.78;;;21.98;35.23
59411;BME280;45215;32.610;-115.482;2022-08-19T01:42:08;100327.50;;;22.02;39.92
59411;BME280;45215;32.610;-115.482;2022-08-19T01:44:38;100334.09;;;22.41;40.47
59411;BME280;45215;32.610;-115.482;2022-08-19T01:47:07;100336.34;;;22.24;37.17
59411;BME280;45215;32.610;-115.482;2022-08-19T01:49:35;100323.28;;;21.93;35.04
59411;BME280;45215;32.610;-115.482;2022-08-19T01:52:02;100332.34;;;21.86;37.40
59411;BME280;45215;32.610;-115.482;2022-08-19T01:54:28;100342.59;;;22.32;42.84
59411;BME280;45215;32.610;-115.482;2022-08-19T01:57:04;100333.44;;;22.26;38.18
59411;BME280;45215;32.610;-115.482;2022-08-19T01:59:32;100342.88;;;22.02;35.43
59411;BME280;45215;32.610;-115.482;2022-08-19T02:01:58;100353.53;;;21.82;35.25
59411;BME280;45215;32.610;-115.482;2022-08-19T02:04:24;100352.25;;;22.13;41.02
59411;BME280;45215;32.610;-115.482;2022-08-19T02:06:52;100355.88;;;22.26;38.66
59411;BME280;45215;32.610;-115.482;2022-08-19T02:09:18;100350.56;;;22.05;36.46
59411;BME280;45215;32.610;-115.482;2022-08-19T02:11:44;100356.84;;;21.84;34.88
59411;BME280;45215;32.610;-115.482;2022-08-19T02:14:10;100358.28;;;22.08;40.33
59411;BME280;45215;32.610;-115.482;2022-08-19T02:16:37;100368.88;;;22.51;41.73
59411;BME280;45215;32.610;-115.482;2022-08-19T02:19:04;100367.00;;;22.45;40.36
59411;BME280;45215;32.610;-115.482;2022-08-19T02:21:31;100367.09;;;22.23;38.71
59411;BME280;45215;32.610;-115.482;2022-08-19T02:23:57;100373.09;;;22.19;38.88
59411;BME280;45215;32.610;-115.482;2022-08-19T02:26:24;100385.34;;;22.56;44.97
59411;BME280;45215;32.610;-115.482;2022-08-19T02:28:52;100386.16;;;22.50;40.46
59411;BME280;45215;32.610;-115.482;2022-08-19T02:31:20;100388.28;;;22.20;37.81
59411;BME280;45215;32.610;-115.482;2022-08-19T02:33:48;100378.13;;;21.94;36.99
59411;BME280;45215;32.610;-115.482;2022-08-19T02:36:16;100397.69;;;22.31;44.98
59411;BME280;45215;32.610;-115.482;2022-08-19T02:38:44;100394.63;;;22.47;41.07
59411;BME280;45215;32.610;-115.482;2022-08-19T02:41:22;100402.44;;;22.28;37.99
59411;BME280;45215;32.610;-115.482;2022-08-19T02:43:49;100391.88;;;21.99;36.28
59411;BME280;45215;32.610;-115.482;2022-08-19T02:46:21;100418.63;;;22.22;43.35
59411;BME280;45215;32.610;-115.482;2022-08-19T02:48:52;100422.13;;;22.50;42.10
59411;BME280;45215;32.610;-115.482;2022-08-19T02:51:22;100414.09;;;22.29;38.02
59411;BME280;45215;32.610;-115.482;2022-08-19T02:53:49;100420.59;;;22.06;36.73
59411;BME280;45215;32.610;-115.482;2022-08-19T02:56:16;100433.03;;;22.01;38.13
59411;BME280;45215;32.610;-115.482;2022-08-19T02:58:43;100440.16;;;22.43;43.11
59411;BME280;45215;32.610;-115.482;2022-08-19T03:01:10;100452.59;;;22.38;39.42
59411;BME280;45215;32.610;-115.482;2022-08-19T03:03:37;100448.66;;;22.05;37.01
59411;BME280;45215;32.610;-115.482;2022-08-19T03:06:06;100459.25;;;21.86;37.00
59411;BME280;45215;32.610;-115.482;2022-08-19T03:08:33;100468.34;;;22.27;43.74
59411;BME280;45215;32.610;-115.482;2022-08-19T03:11:00;100471.94;;;22.41;40.14
59411;BME280;45215;32.610;-115.482;2022-08-19T03:13:26;100471.63;;;22.23;37.51
59411;BME280;45215;32.610;-115.482;2022-08-19T03:15:53;100488.25;;;21.98;35.56
59411;BME280;45215;32.610;-115.482;2022-08-19T03:18:20;100484.84;;;22.11;43.06
59411;BME280;45215;32.610;-115.482;2022-08-19T03:20:48;100492.13;;;22.39;41.04
59411;BME280;45215;32.610;-115.482;2022-08-19T03:23:15;100495.69;;;22.18;37.51
59411;BME280;45215;32.610;-115.482;2022-08-19T03:25:46;100495.50;;;21.91;35.54
59411;BME280;45215;32.610;-115.482;2022-08-19T03:28:14;100503.00;;;21.96;39.23
59411;BME280;45215;32.610;-115.482;2022-08-19T03:30:42;100514.97;;;22.36;41.81
59411;BME280;45215;32.610;-115.482;2022-08-19T03:33:10;100517.13;;;22.19;38.06
59411;BME280;45215;32.610;-115.482;2022-08-19T03:35:39;100510.84;;;21.91;35.68
59411;BME280;45215;32.610;-115.482;2022-08-19T03:38:06;100516.34;;;21.82;38.96
59411;BME280;45215;32.610;-115.482;2022-08-19T03:40:37;100520.56;;;22.35;42.89
59411;BME280;45215;32.610;-115.482;2022-08-19T03:43:04;100519.63;;;22.21;38.64
59411;BME280;45215;32.610;-115.482;2022-08-19T03:45:32;100519.13;;;21.89;36.28
59411;BME280;45215;32.610;-115.482;2022-08-19T03:47:59;100522.53;;;21.76;37.03
59411;BME280;45215;32.610;-115.482;2022-08-19T03:50:26;100535.91;;;22.27;43.77
59411;BME280;45215;32.610;-115.482;2022-08-19T03:52:52;100534.47;;;22.32;39.19
59411;BME280;45215;32.610;-115.482;2022-08-19T03:55:18;100533.59;;;22.03;36.24
59411;BME280;45215;32.610;-115.482;2022-08-19T03:57:44;100532.13;;;21.79;34.74
59411;BME280;45215;32.610;-115.482;2022-08-19T04:00:12;100535.25;;;22.04;42.94
59411;BME280;45215;32.610;-115.482;2022-08-19T04:02:38;100544.00;;;22.27;40.02
59411;BME280;45215;32.610;-115.482;2022-08-19T04:05:07;100528.19;;;22.03;37.10
59411;BME280;45215;32.610;-115.482;2022-08-19T04:07:35;100531.06;;;21.80;34.98
59411;BME280;45215;32.610;-115.482;2022-08-19T04:10:03;100521.38;;;21.86;40.71
59411;BME280;45215;32.610;-115.482;2022-08-19T04:12:30;100531.72;;;22.25;40.61
59411;BME280;45215;32.610;-115.482;2022-08-19T04:14:57;100527.16;;;22.04;36.77
59411;BME280;45215;32.610;-115.482;2022-08-19T04:17:25;100528.56;;;21.78;34.68
59411;BME280;45215;32.610;-115.482;2022-08-19T04:19:51;100530.63;;;21.76;39.61
59411;BME280;45215;32.610;-115.482;2022-08-19T04:22:17;100539.34;;;22.21;41.32
59411;BME280;45215;32.610;-115.482;2022-08-19T04:24:44;100517.56;;;22.01;37.54
59411;BME280;45215;32.610;-115.482;2022-08-19T04:27:10;100531.72;;;21.82;34.90
59411;BME280;45215;32.610;-115.482;2022-08-19T04:29:36;100529.41;;;21.57;35.85
59411;BME280;45215;32.610;-115.482;2022-08-19T04:32:06;100537.56;;;22.07;42.85
59411;BME280;45215;32.610;-115.482;2022-08-19T04:34:35;100537.41;;;22.09;37.76
59411;BME280;45215;32.610;-115.482;2022-08-19T04:37:05;100532.94;;;21.79;35.51
59411;BME280;45215;32.610;-115.482;2022-08-19T04:39:38;100536.66;;;21.57;35.19
59411;BME280;45215;32.610;-115.482;2022-08-19T04:42:23;100525.84;;;21.93;42.35
59411;BME280;45215;32.610;-115.482;2022-08-19T04:45:11;100527.56;;;22.01;37.33
59411;BME280;45215;32.610;-115.482;2022-08-19T04:47:41;100523.03;;;21.65;35.18
59411;BME280;45215;32.610;-115.482;2022-08-19T04:50:09;100534.53;;;21.52;35.96
59411;BME280;45215;32.610;-115.482;2022-08-19T04:52:40;100542.28;;;21.98;43.24
59411;BME280;45215;32.610;-115.482;2022-08-19T04:55:10;100539.00;;;22.03;38.51
59411;BME280;45215;32.610;-115.482;2022-08-19T04:57:36;100522.66;;;21.68;35.66
59411;BME280;45215;32.610;-115.482;2022-08-19T05:00:08;100536.38;;;21.52;34.96
59411;BME280;45215;32.610;-115.482;2022-08-19T05:02:37;100546.72;;;21.84;42.21
59411;BME280;45215;32.610;-115.482;2022-08-19T05:05:04;100525.59;;;21.88;38.45
59411;BME280;45215;32.610;-115.482;2022-08-19T05:07:32;100540.56;;;21.76;36.01
59411;BME280;45215;32.610;-115.482;2022-08-19T05:09:58;100539.09;;;21.52;34.25
59411;BME280;45215;32.610;-115.482;2022-08-19T05:12:24;100539.75;;;21.75;39.81
59411;BME280;45215;32.610;-115.482;2022-08-19T05:14:51;100535.66;;;22.01;39.16
59411;BME280;45215;32.610;-115.482;2022-08-19T05:17:17;100535.66;;;21.79;36.10
59411;BME280;45215;32.610;-115.482;2022-08-19T05:19:43;100543.94;;;21.56;34.69
59411;BME280;45215;32.610;-115.482;2022-08-19T05:22:28;100542.19;;;21.70;40.99
59411;BME280;45215;32.610;-115.482;2022-08-19T05:25:11;100540.44;;;21.99;38.99
59411;BME280;45215;32.610;-115.482;2022-08-19T05:27:38;100530.81;;;21.75;35.69
59411;BME280;45215;32.610;-115.482;2022-08-19T05:30:04;100535.56;;;21.51;34.14
59411;BME280;45215;32.610;-115.482;2022-08-19T05:32:31;100523.72;;;21.52;37.69
59411;BME280;45215;32.610;-115.482;2022-08-19T05:34:57;100527.44;;;21.88;39.26
59411;BME280;45215;32.610;-115.482;2022-08-19T05:37:23;100513.19;;;21.57;36.47
59411;BME280;45215;32.610;-115.482;2022-08-19T05:39:52;100521.78;;;21.46;34.49
59411;BME280;45215;32.610;-115.482;2022-08-19T05:42:21;100523.00;;;21.44;36.64
59411;BME280;45215;32.610;-115.482;2022-08-19T05:44:49;100529.66;;;21.84;40.33
59411;BME280;45215;32.610;-115.482;2022-08-19T05:47:18;100526.63;;;21.72;36.07
59411;BME280;45215;32.610;-115.482;2022-08-19T05:49:45;100534.63;;;21.44;34.32
59411;BME280;45215;32.610;-115.482;2022-08-19T05:52:14;100534.28;;;21.32;35.84
59411;BME280;45215;32.610;-115.482;2022-08-19T05:54:43;100542.84;;;21.72;41.21
59411;BME280;45215;32.610;-115.482;2022-08-19T05:57:14;100541.56;;;21.68;36.28
59411;BME280;45215;32.610;-115.482;2022-08-19T05:59:40;100537.00;;;21.32;34.44
59411;BME280;45215;32.610;-115.482;2022-08-19T06:02:07;100572.66;;;21.28;35.53
59411;BME280;45215;32.610;-115.482;2022-08-19T06:04:34;100579.25;;;21.61;40.57
59411;BME280;45215;32.610;-115.482;2022-08-19T06:07:06;100597.97;;;21.63;36.96
59411;BME280;45215;32.610;-115.482;2022-08-19T06:09:32;100614.09;;;21.42;34.51
59411;BME280;45215;32.610;-115.482;2022-08-19T06:11:59;100627.34;;;21.22;34.23
59411;BME280;45215;32.610;-115.482;2022-08-19T06:14:29;100668.53;;;21.60;41.52
59411;BME280;45215;32.610;-115.482;2022-08-19T06:16:56;100721.41;;;21.69;37.61
59411;BME280;45215;32.610;-115.482;2022-08-19T06:19:23;100764.31;;;21.49;35.94
59411;BME280;45215;32.610;-115.482;2022-08-19T06:33:48;100752.41;;;21.73;39.37
59411;BME280;45215;32.610;-115.482;2022-08-19T06:36:26;100758.47;;;21.46;37.67
59411;BME280;45215;32.610;-115.482;2022-08-19T06:38:54;100762.47;;;21.65;45.58
59411;BME280;45215;32.610;-115.482;2022-08-19T06:41:20;100751.94;;;21.84;42.32
59411;BME280;45215;32.610;-115.482;2022-08-19T06:43:46;100748.69;;;21.59;38.84
59411;BME280;45215;32.610;-115.482;2022-08-19T06:46:15;100755.38;;;21.34;36.48
59411;BME280;45215;32.610;-115.482;2022-08-19T06:48:42;100758.63;;;21.29;42.15
59411;BME280;45215;32.610;-115.482;2022-08-19T06:51:08;100777.94;;;21.71;42.79
59411;BME280;45215;32.610;-115.482;2022-08-19T06:53:34;100782.19;;;21.50;38.86
59411;BME280;45215;32.610;-115.482;2022-08-19T06:56:01;100779.28;;;21.22;36.89
59411;BME280;45215;32.610;-115.482;2022-08-19T06:58:31;100782.81;;;21.23;41.42
59411;BME280;45215;32.610;-115.482;2022-08-19T07:01:01;100778.84;;;21.63;43.31
59411;BME280;45215;32.610;-115.482;2022-08-19T07:03:30;100771.56;;;21.49;39.00
59411;BME280;45215;32.610;-115.482;2022-08-19T07:06:04;100760.94;;;21.17;36.75
59411;BME280;45215;32.610;-115.482;2022-08-19T07:08:32;100733.22;;;21.01;40.35
59411;BME280;45215;32.610;-115.482;2022-08-19T07:10:59;100742.34;;;21.52;43.53
59411;BME280;45215;32.610;-115.482;2022-08-19T07:13:26;100723.38;;;21.31;39.04
59411;BME280;45215;32.610;-115.482;2022-08-19T07:15:52;100723.44;;;21.08;36.35
59411;BME280;45215;32.610;-115.482;2022-08-19T07:18:20;100732.94;;;20.95;38.31
59411;BME280;45215;32.610;-115.482;2022-08-19T07:20:47;100719.56;;;21.25;44.44
59411;BME280;45215;32.610;-115.482;2022-08-19T07:23:13;100736.28;;;21.35;39.32
59411;BME280;45215;32.610;-115.482;2022-08-19T07:25:40;100744.81;;;21.09;36.43
59411;BME280;45215;32.610;-115.482;2022-08-19T07:28:06;100751.03;;;20.87;36.26
59411;BME280;45215;32.610;-115.482;2022-08-19T07:30:38;100762.44;;;21.20;44.45
59411;BME280;45215;32.610;-115.482;2022-08-19T07:33:06;100750.16;;;21.32;39.52
59411;BME280;45215;32.610;-115.482;2022-08-19T07:35:32;100748.03;;;21.05;36.88
59411;BME280;45215;32.610;-115.482;2022-08-19T07:37:59;100741.34;;;20.78;35.19
59411;BME280;45215;32.610;-115.482;2022-08-19T07:40:28;100746.41;;;20.95;42.33
59411;BME280;45215;32.610;-115.482;2022-08-19T07:42:54;100756.94;;;21.28;40.27
59411;BME280;45215;32.610;-115.482;2022-08-19T07:45:20;100749.75;;;21.06;37.02
59411;BME280;45215;32.610;-115.482;2022-08-19T07:47:47;100758.38;;;20.78;35.43
59411;BME280;45215;32.610;-115.482;2022-08-19T07:50:13;100766.16;;;20.73;39.21
59411;BME280;45215;32.610;-115.482;2022-08-19T07:52:39;100757.94;;;21.12;41.82
59411;BME280;45215;32.610;-115.482;2022-08-19T07:55:08;100756.81;;;21.07;37.90
59411;BME280;45215;32.610;-115.482;2022-08-19T07:57:35;100756.34;;;20.80;35.68
59411;BME280;45215;32.610;-115.482;2022-08-19T08:00:03;100768.63;;;20.60;36.48
59411;BME280;45215;32.610;-115.482;2022-08-19T08:02:29;100758.66;;;20.83;42.97
59411;BME280;45215;32.610;-115.482;2022-08-19T08:04:55;100765.13;;;20.97;38.16
59411;BME280;45215;32.610;-115.482;2022-08-19T08:07:40;100760.75;;;20.73;35.47
59411;BME280;45215;32.610;-115.482;2022-08-19T08:10:24;100751.84;;;20.49;36.32
59411;BME280;45215;32.610;-115.482;2022-08-19T08:12:51;100759.81;;;20.89;42.91
59411;BME280;45215;32.610;-115.482;2022-08-19T08:15:18;100719.63;;;20.79;37.37
59411;BME280;45215;32.610;-115.482;2022-08-19T08:17:45;100706.84;;;20.50;35.42
59411;BME280;45215;32.610;-115.482;2022-08-19T08:20:12;100725.97;;;20.40;34.46
59411;BME280;45215;32.610;-115.482;2022-08-19T08:22:43;100729.34;;;20.65;42.48
59411;BME280;45215;32.610;-115.482;2022-08-19T08:25:28;100730.16;;;20.66;37.71
59411;BME280;45215;32.610;-115.482;2022-08-19T08:27:55;100742.72;;;20.50;35.05
59411;BME280;45215;32.610;-115.482;2022-08-19T08:30:24;100742.22;;;20.24;33.97
59411;BME280;45215;32.610;-115.482;2022-08-19T08:32:51;100744.41;;;20.52;41.77
59411;BME280;45215;32.610;-115.482;2022-08-19T08:35:20;100729.59;;;20.93;45.01
59411;BME280;45215;32.610;-115.482;2022-08-19T08:37:48;100745.78;;;20.93;38.41
59411;BME280;45215;32.610;-115.482;2022-08-19T08:45:36;100720.09;;;20.60;43.08
59411;BME280;45215;32.610;-115.482;2022-08-19T08:48:44;100722.09;;;20.66;37.43
59411;BME280;45215;32.610;-115.482;2022-08-19T08:51:14;100730.69;;;20.38;34.91
59411;BME280;45215;32.610;-115.482;2022-08-19T08:53:42;100719.53;;;20.18;35.38
59411;BME280;45215;32.610;-115.482;2022-08-19T08:56:11;100712.38;;;20.57;42.80
59411;BME280;45215;32.610;-115.482;2022-08-19T08:58:44;100707.38;;;20.91;41.13
59411;BME280;45215;32.610;-115.482;2022-08-19T09:01:11;100697.63;;;20.67;37.32
59411;BME280;45215;32.610;-115.482;2022-08-19T09:03:39;100669.34;;;20.25;34.96
59411;BME280;45215;32.610;-115.482;2022-08-19T09:09:05;100705.00;;;20.74;44.35
59411;BME280;45215;32.610;-115.482;2022-08-19T09:17:03;100672.88;;;20.26;34.76
59411;BME280;45215;32.610;-115.482;2022-08-19T09:19:35;100633.38;;;20.10;41.45
59411;BME280;45215;32.610;-115.482;2022-08-19T09:22:12;100674.88;;;20.85;45.36
59411;BME280;45215;32.610;-115.482;2022-08-19T09:24:38;100673.59;;;20.81;38.89
59411;BME280;45215;32.610;-115.482;2022-08-19T09:27:05;100669.69;;;20.45;36.47
59411;BME280;45215;32.610;-115.482;2022-08-19T09:29:31;100654.38;;;20.15;34.89
59411;BME280;45215;32.610;-115.482;2022-08-19T09:31:57;100660.84;;;20.37;42.13
59411;BME280;45215;32.610;-115.482;2022-08-19T09:34:23;100643.69;;;20.53;38.58
59411;BME280;45215;32.610;-115.482;2022-08-19T09:36:50;100614.84;;;20.15;35.47
59411;BME280;45215;32.610;-115.482;2022-08-19T09:39:21;100647.03;;;20.09;34.05
59411;BME280;45215;32.610;-115.482;2022-08-19T09:41:47;100653.72;;;20.13;40.00
59411;BME280;45215;32.610;-115.482;2022-08-19T09:44:15;100644.66;;;20.60;44.84
59411;BME280;45215;32.610;-115.482;2022-08-19T09:46:42;100647.16;;;20.76;40.57
59411;BME280;45215;32.610;-115.482;2022-08-19T09:49:08;100628.25;;;20.46;36.91
59411;BME280;45215;32.610;-115.482;2022-08-19T09:51:34;100625.47;;;20.17;34.71
59411;BME280;45215;32.610;-115.482;2022-08-19T09:54:04;100607.38;;;20.02;40.08
59411;BME280;45215;32.610;-115.482;2022-08-19T09:56:31;100625.47;;;20.55;45.04
59411;BME280;45215;32.610;-115.482;2022-08-19T09:59:01;100612.50;;;20.73;41.15
59411;BME280;45215;32.610;-115.482;2022-08-19T10:01:30;100609.03;;;20.49;36.96
59411;BME280;45215;32.610;-115.482;2022-08-19T10:03:59;100588.41;;;20.11;35.03
59411;BME280;45215;32.610;-115.482;2022-08-19T10:06:28;100601.88;;;20.11;39.23
59411;BME280;45215;32.610;-115.482;2022-08-19T10:08:59;100604.97;;;20.54;44.71
59411;BME280;45215;32.610;-115.482;2022-08-19T10:11:25;100609.09;;;20.79;41.65
59411;BME280;45215;32.610;-115.482;2022-08-19T10:13:52;100589.22;;;20.42;37.74
59411;BME280;45215;32.610;-115.482;2022-08-19T10:16:20;100600.19;;;20.18;35.41
59411;BME280;45215;32.610;-115.482;2022-08-19T10:18:49;100606.50;;;20.02;37.88
59411;BME280;45215;32.610;-115.482;2022-08-19T10:21:18;100597.00;;;20.37;44.53
59411;BME280;45215;32.610;-115.482;2022-08-19T10:23:47;100610.75;;;20.80;42.88
59411;BME280;45215;32.610;-115.482;2022-08-19T10:26:21;100584.47;;;20.44;38.12
59411;BME280;45215;32.610;-115.482;2022-08-19T10:28:48;100593.78;;;20.19;35.69
59411;BME280;45215;32.610;-115.482;2022-08-19T10:31:19;100574.50;;;19.84;38.42
59411;BME280;45215;32.610;-115.482;2022-08-19T10:33:47;100579.88;;;20.30;44.59
59411;BME280;45215;32.610;-115.482;2022-08-19T10:36:16;100587.59;;;20.71;42.83
59411;BME280;45215;32.610;-115.482;2022-08-19T10:38:45;100587.16;;;20.44;38.30
59411;BME280;45215;32.610;-115.482;2022-08-19T10:41:14;100591.44;;;20.16;36.03
59411;BME280;45215;32.610;-115.482;2022-08-19T10:43:41;100591.44;;;19.93;37.39
59411;BME280;45215;32.610;-115.482;2022-08-19T10:46:10;100590.28;;;20.33;44.63
59411;BME280;45215;32.610;-115.482;2022-08-19T10:48:36;100595.03;;;20.69;44.22
59411;BME280;45215;32.610;-115.482;2022-08-19T10:51:03;100595.19;;;20.53;39.25
59411;BME280;45215;32.610;-115.482;2022-08-19T10:53:49;100589.09;;;20.13;36.30
59411;BME280;45215;32.610;-115.482;2022-08-19T10:56:16;100589.94;;;19.90;37.12
59411;BME280;45215;32.610;-115.482;2022-08-19T10:59:01;100587.44;;;20.35;44.76
59411;BME280;45215;32.610;-115.482;2022-08-19T11:01:30;100601.25;;;20.69;43.14
59411;BME280;45215;32.610;-115.482;2022-08-19T11:04:00;100579.53;;;20.33;38.55
59411;BME280;45215;32.610;-115.482;2022-08-19T11:06:27;100597.72;;;20.08;36.23
59411;BME280;45215;32.610;-115.482;2022-08-19T11:08:54;100601.53;;;19.91;37.05
59411;BME280;45215;32.610;-115.482;2022-08-19T11:11:21;100596.97;;;20.22;44.43
59411;BME280;45215;32.610;-115.482;2022-08-19T11:13:48;100607.38;;;20.63;44.17
59411;BME280;45215;32.610;-115.482;2022-08-19T11:16:21;100600.16;;;20.41;38.91
59411;BME280;45215;32.610;-115.482;2022-08-19T11:18:52;100600.91;;;20.12;36.26
59411;BME280;45215;32.610;-115.482;2022-08-19T11:21:28;100599.38;;;19.86;37.75
59411;BME280;45215;32.610;-115.482;2022-08-19T11:23:59;100601.84;;;20.19;44.93
59411;BME280;45215;32.610;-115.482;2022-08-19T11:26:26;100606.06;;;20.59;43.65
59411;BME280;45215;32.610;-115.482;2022-08-19T11:28:53;100607.06;;;20.43;38.74
59411;BME280;45215;32.610;-115.482;2022-08-19T11:31:22;100605.25;;;20.13;36.08
59411;BME280;45215;32.610;-115.482;2022-08-19T11:33:49;100600.38;;;19.85;37.20
59411;BME280;45215;32.610;-115.482;2022-08-19T11:36:21;100598.63;;;20.23;44.57
59411;BME280;45215;32.610;-115.482;2022-08-19T11:38:49;100606.06;;;20.59;43.99
59411;BME280;45215;32.610;-115.482;2022-08-19T11:41:17;100598.00;;;20.36;39.11
59411;BME280;45215;32.610;-115.482;2022-08-19T11:43:43;100589.22;;;19.96;36.39
59411;BME280;45215;32.610;-115.482;2022-08-19T11:46:12;100602.78;;;19.80;36.69
59411;BME280;45215;32.610;-115.482;2022-08-19T11:48:40;100613.16;;;20.14;44.32
59411;BME280;45215;32.610;-115.482;2022-08-19T11:51:10;100621.13;;;20.54;44.52
59411;BME280;45215;32.610;-115.482;2022-08-19T11:53:37;100613.81;;;20.39;39.03
59411;BME280;45215;32.610;-115.482;2022-08-19T11:56:04;100619.59;;;20.05;36.66
59411;BME280;45215;32.610;-115.482;2022-08-19T11:58:31;100614.56;;;19.79;36.08
59411;BME280;45215;32.610;-115.482;2022-08-19T12:00:58;100599.16;;;19.96;43.63
59411;BME280;45215;32.610;-115.482;2022-08-19T12:03:25;100625.38;;;20.48;45.06
59411;BME280;45215;32.610;-115.482;2022-08-19T12:05:51;100633.03;;;20.36;39.49
59411;BME280;45215;32.610;-115.482;2022-08-19T12:08:18;100634.09;;;20.04;36.81
59411;BME280;45215;32.610;-115.482;2022-08-19T12:10:45;100638.47;;;19.74;35.80
59411;BME280;45215;32.610;-115.482;2022-08-19T12:13:12;100630.16;;;19.92;43.42
59411;BME280;45215;32.610;-115.482;2022-08-19T12:15:45;100649.34;;;20.43;45.17
59411;BME280;45215;32.610;-115.482;2022-08-19T12:18:12;100641.84;;;20.30;39.34
59411;BME280;45215;32.610;-115.482;2022-08-19T12:20:40;100637.66;;;19.96;36.68
59411;BME280;45215;32.610;-115.482;2022-08-19T12:23:08;100635.84;;;19.66;35.52
59411;BME280;45215;32.610;-115.482;2022-08-19T12:25:36;100650.19;;;19.89;43.39
59411;BME280;45215;32.610;-115.482;2022-08-19T12:28:03;100656.16;;;20.31;46.42
59411;BME280;45215;32.610;-115.482;2022-08-19T12:30:29;100657.16;;;20.30;40.20
59411;BME280;45215;32.610;-115.482;2022-08-19T12:32:55;100661.41;;;19.93;37.09
59411;BME280;45215;32.610;-115.482;2022-08-19T12:35:21;100664.28;;;19.60;35.55
59411;BME280;45215;32.610;-115.482;2022-08-19T12:37:48;100650.16;;;19.58;42.74
59411;BME280;45215;32.610;-115.482;2022-08-19T12:40:15;100677.94;;;20.21;46.22
59411;BME280;45215;32.610;-115.482;2022-08-19T12:42:43;100666.16;;;20.22;40.99
59411;BME280;45215;32.610;-115.482;2022-08-19T12:45:11;100671.72;;;19.89;37.36
59411;BME280;45215;32.610;-115.482;2022-08-19T12:47:37;100693.34;;;19.65;35.50
59411;BME280;45215;32.610;-115.482;2022-08-19T12:50:05;100700.91;;;19.69;41.96
59411;BME280;45215;32.610;-115.482;2022-08-19T12:52:35;100713.31;;;20.18;46.17
59411;BME280;45215;32.610;-115.482;2022-08-19T12:55:09;100694.09;;;20.21;41.50